Aérodrome :







RETROUVEZ-NOUS SUR...

 
LOGIN :

S'inscrire | Disclaimer

   EN    FR    IT 

 









Légende :    VFR   VFR Marginal   IFR   IFR Intensif   IFR Très Intensif
Visi : 
Plafond : 
>= 8 km
>= 3000ft
5 à 8 km
1000 à 3000 ft
1500m à 5 km
500 à 1000 ft
800 à 1500m
200 à 500 ft
< 800m
< 200 ft
Symboles :   Orages  Brouillard  Fortes neiges  Fortes précipitations  Vent > 20 kt







- Altitude de l'aérodrome : 328 ft


KGFL - Floyd Bennett Memorial

DERNIER METAR :
  • 210224Z AUTO 00000KT 4SM BR CLR 11/10 A3017 RMK AO2 T01060100

METARs EXPIRÉS :
  • 210158Z AUTO 00000KT 1 3/4SM BR CLR 11/10 A3016 RMK AO2 VIS 3/4V5 T01110100
  • 210153Z AUTO 00000KT 6SM BR CLR 12/11 A3016 RMK AO2 SLP217 T01170106
  • 210136Z AUTO 00000KT 3SM BR CLR 12/11 A3017 RMK AO2 T01170111
  • 210053Z AUTO 00000KT 10SM CLR 13/12 A3016 RMK AO2 SLP215 T01330122
  • 202353Z AUTO 00000KT 10SM CLR 14/13 A3015 RMK AO2 SLP212 T01440128 10233 20144 53003

TAF KGFL
Valide du 21 à 02h jusqu'au 22 à 00h UTC


210152Z 2102/2124 VRB03KT P6SM SCT150 SCT250
TEMPO 2102/2106 1SM BR SCT002
FM210600 00000KT 2SM BR FEW150
TEMPO 2108/2112 1/2SM FG VV002
FM211300 00000KT P6SM FEW150
Pas de NOTAMs connus pour ce terrain.



MET'MAP, la Météo Aéronautique d'un coup d'oeil ! - Copyright ORBIFLY Décembre 2007 - Disclaimer

ORBIFLY MET'MAP TEAM :

Programmation & Développement : Alexandra Zaïnal
Conception & Développement : Baudouin d'Aumeries
Co-Programmation & Développement : Marc-Olivier Méhu
Soutien technique & logistique : Manuel Goepfert

Contact : metmap@orbifly.com




SOURCES & CREDITS :

   NOAA